sensor_id;sensor_type;location;lat;lon;timestamp;P1;durP1;ratioP1;P2;durP2;ratioP2
12218;SDS011;6172;42.646;23.344;2023-07-22T00:00:02;7.53;;;4.25;;
12218;SDS011;6172;42.646;23.344;2023-07-22T00:02:31;10.38;;;4.60;;
12218;SDS011;6172;42.646;23.344;2023-07-22T00:04:58;11.25;;;4.90;;
12218;SDS011;6172;42.646;23.344;2023-07-22T00:07:25;9.13;;;4.68;;
12218;SDS011;6172;42.646;23.344;2023-07-22T00:09:53;7.38;;;4.70;;
12218;SDS011;6172;42.646;23.344;2023-07-22T00:12:20;10.90;;;5.00;;
12218;SDS011;6172;42.646;23.344;2023-07-22T00:14:50;13.15;;;4.45;;
12218;SDS011;6172;42.646;23.344;2023-07-22T00:17:18;8.07;;;4.60;;
12218;SDS011;6172;42.646;23.344;2023-07-22T00:19:46;8.82;;;4.53;;
12218;SDS011;6172;42.646;23.344;2023-07-22T00:22:13;10.18;;;4.32;;
12218;SDS011;6172;42.646;23.344;2023-07-22T00:24:40;7.57;;;4.38;;
12218;SDS011;6172;42.646;23.344;2023-07-22T00:27:08;12.57;;;5.25;;
12218;SDS011;6172;42.646;23.344;2023-07-22T00:29:35;8.38;;;4.63;;
12218;SDS011;6172;42.646;23.344;2023-07-22T00:32:02;15.20;;;5.03;;
12218;SDS011;6172;42.646;23.344;2023-07-22T00:34:32;13.40;;;4.82;;
12218;SDS011;6172;42.646;23.344;2023-07-22T00:36:59;10.80;;;4.32;;
12218;SDS011;6172;42.646;23.344;2023-07-22T00:39:26;10.82;;;4.80;;
12218;SDS011;6172;42.646;23.344;2023-07-22T00:41:52;13.05;;;5.05;;
12218;SDS011;6172;42.646;23.344;2023-07-22T00:44:21;6.95;;;4.35;;
12218;SDS011;6172;42.646;23.344;2023-07-22T00:46:48;8.07;;;4.35;;
12218;SDS011;6172;42.646;23.344;2023-07-22T00:49:20;14.35;;;5.35;;
12218;SDS011;6172;42.646;23.344;2023-07-22T00:51:46;8.88;;;4.70;;
12218;SDS011;6172;42.646;23.344;2023-07-22T00:54:13;14.13;;;4.63;;
12218;SDS011;6172;42.646;23.344;2023-07-22T00:56:40;9.07;;;5.10;;
12218;SDS011;6172;42.646;23.344;2023-07-22T00:59:09;10.45;;;5.07;;
12218;SDS011;6172;42.646;23.344;2023-07-22T01:01:38;10.43;;;5.00;;
12218;SDS011;6172;42.646;23.344;2023-07-22T01:04:05;9.50;;;4.45;;
12218;SDS011;6172;42.646;23.344;2023-07-22T01:06:32;10.27;;;4.90;;
12218;SDS011;6172;42.646;23.344;2023-07-22T01:09:01;8.05;;;4.82;;
12218;SDS011;6172;42.646;23.344;2023-07-22T01:11:29;13.88;;;5.22;;
12218;SDS011;6172;42.646;23.344;2023-07-22T01:13:57;4.82;;;3.92;;
12218;SDS011;6172;42.646;23.344;2023-07-22T01:16:25;8.52;;;4.90;;
12218;SDS011;6172;42.646;23.344;2023-07-22T01:18:54;8.25;;;4.50;;
12218;SDS011;6172;42.646;23.344;2023-07-22T01:21:21;7.85;;;4.40;;
12218;SDS011;6172;42.646;23.344;2023-07-22T01:23:50;9.52;;;4.70;;
12218;SDS011;6172;42.646;23.344;2023-07-22T01:26:18;9.88;;;5.22;;
12218;SDS011;6172;42.646;23.344;2023-07-22T01:28:45;7.88;;;4.90;;
12218;SDS011;6172;42.646;23.344;2023-07-22T01:31:12;8.10;;;4.65;;
12218;SDS011;6172;42.646;23.344;2023-07-22T01:33:39;11.00;;;4.63;;
12218;SDS011;6172;42.646;23.344;2023-07-22T01:36:06;7.90;;;4.68;;
12218;SDS011;6172;42.646;23.344;2023-07-22T01:38:33;6.63;;;4.25;;
12218;SDS011;6172;42.646;23.344;2023-07-22T01:41:02;7.43;;;4.72;;
12218;SDS011;6172;42.646;23.344;2023-07-22T01:43:29;9.02;;;4.88;;
12218;SDS011;6172;42.646;23.344;2023-07-22T01:45:56;10.38;;;5.13;;
12218;SDS011;6172;42.646;23.344;2023-07-22T01:48:22;6.03;;;4.55;;
12218;SDS011;6172;42.646;23.344;2023-07-22T01:50:49;9.48;;;4.50;;
12218;SDS011;6172;42.646;23.344;2023-07-22T01:53:18;9.23;;;4.60;;
12218;SDS011;6172;42.646;23.344;2023-07-22T01:55:45;9.88;;;4.90;;
12218;SDS011;6172;42.646;23.344;2023-07-22T01:58:14;6.38;;;4.63;;
12218;SDS011;6172;42.646;23.344;2023-07-22T02:00:41;9.18;;;4.95;;
12218;SDS011;6172;42.646;23.344;2023-07-22T02:03:08;11.13;;;4.50;;
12218;SDS011;6172;42.646;23.344;2023-07-22T02:05:34;9.70;;;4.55;;
12218;SDS011;6172;42.646;23.344;2023-07-22T02:08:01;10.50;;;4.30;;
12218;SDS011;6172;42.646;23.344;2023-07-22T02:10:28;7.93;;;4.50;;
12218;SDS011;6172;42.646;23.344;2023-07-22T02:12:55;9.60;;;4.43;;
12218;SDS011;6172;42.646;23.344;2023-07-22T02:15:23;5.88;;;4.60;;
12218;SDS011;6172;42.646;23.344;2023-07-22T02:17:50;10.68;;;4.05;;
12218;SDS011;6172;42.646;23.344;2023-07-22T02:20:17;7.05;;;4.03;;
12218;SDS011;6172;42.646;23.344;2023-07-22T02:22:44;6.45;;;4.60;;
12218;SDS011;6172;42.646;23.344;2023-07-22T02:25:10;8.15;;;3.95;;
12218;SDS011;6172;42.646;23.344;2023-07-22T02:27:38;7.20;;;4.68;;
12218;SDS011;6172;42.646;23.344;2023-07-22T02:30:06;6.80;;;4.43;;
12218;SDS011;6172;42.646;23.344;2023-07-22T02:32:38;8.63;;;4.32;;
12218;SDS011;6172;42.646;23.344;2023-07-22T02:35:06;8.23;;;4.32;;
12218;SDS011;6172;42.646;23.344;2023-07-22T02:37:33;7.30;;;4.63;;
12218;SDS011;6172;42.646;23.344;2023-07-22T02:40:01;8.05;;;4.28;;
12218;SDS011;6172;42.646;23.344;2023-07-22T02:42:33;9.20;;;4.40;;
12218;SDS011;6172;42.646;23.344;2023-07-22T02:45:00;7.32;;;4.25;;
12218;SDS011;6172;42.646;23.344;2023-07-22T02:47:26;7.20;;;4.65;;
12218;SDS011;6172;42.646;23.344;2023-07-22T02:49:55;7.50;;;4.57;;
12218;SDS011;6172;42.646;23.344;2023-07-22T02:52:23;6.75;;;4.45;;
12218;SDS011;6172;42.646;23.344;2023-07-22T02:55:07;9.88;;;4.93;;
12218;SDS011;6172;42.646;23.344;2023-07-22T02:57:36;8.57;;;4.88;;
12218;SDS011;6172;42.646;23.344;2023-07-22T03:00:03;7.53;;;4.78;;
12218;SDS011;6172;42.646;23.344;2023-07-22T03:02:33;7.05;;;5.05;;
12218;SDS011;6172;42.646;23.344;2023-07-22T03:05:02;8.75;;;5.20;;
12218;SDS011;6172;42.646;23.344;2023-07-22T03:07:33;7.65;;;4.97;;
12218;SDS011;6172;42.646;23.344;2023-07-22T03:09:59;9.40;;;5.35;;
12218;SDS011;6172;42.646;23.344;2023-07-22T03:12:27;9.93;;;5.15;;
12218;SDS011;6172;42.646;23.344;2023-07-22T03:14:54;9.60;;;5.68;;
12218;SDS011;6172;42.646;23.344;2023-07-22T03:17:21;8.93;;;5.43;;
12218;SDS011;6172;42.646;23.344;2023-07-22T03:19:47;8.27;;;5.55;;
12218;SDS011;6172;42.646;23.344;2023-07-22T03:22:16;10.18;;;5.40;;
12218;SDS011;6172;42.646;23.344;2023-07-22T03:24:44;6.88;;;4.93;;
12218;SDS011;6172;42.646;23.344;2023-07-22T03:27:11;8.55;;;4.88;;
12218;SDS011;6172;42.646;23.344;2023-07-22T03:29:40;7.65;;;4.90;;
12218;SDS011;6172;42.646;23.344;2023-07-22T03:32:07;10.60;;;5.35;;
12218;SDS011;6172;42.646;23.344;2023-07-22T03:34:34;8.30;;;5.13;;
12218;SDS011;6172;42.646;23.344;2023-07-22T03:37:01;8.07;;;4.78;;
12218;SDS011;6172;42.646;23.344;2023-07-22T03:39:30;8.95;;;4.97;;
12218;SDS011;6172;42.646;23.344;2023-07-22T03:41:57;12.73;;;5.53;;
12218;SDS011;6172;42.646;23.344;2023-07-22T03:44:24;10.50;;;5.40;;
12218;SDS011;6172;42.646;23.344;2023-07-22T03:46:51;8.88;;;5.30;;
12218;SDS011;6172;42.646;23.344;2023-07-22T03:49:18;8.88;;;4.93;;
12218;SDS011;6172;42.646;23.344;2023-07-22T03:51:47;7.95;;;5.28;;
12218;SDS011;6172;42.646;23.344;2023-07-22T03:54:13;10.25;;;5.63;;
12218;SDS011;6172;42.646;23.344;2023-07-22T03:56:42;8.40;;;5.45;;
12218;SDS011;6172;42.646;23.344;2023-07-22T03:59:09;13.02;;;5.25;;
12218;SDS011;6172;42.646;23.344;2023-07-22T04:01:36;7.93;;;5.55;;
12218;SDS011;6172;42.646;23.344;2023-07-22T04:04:03;8.13;;;5.20;;
12218;SDS011;6172;42.646;23.344;2023-07-22T04:06:30;6.20;;;4.82;;
12218;SDS011;6172;42.646;23.344;2023-07-22T04:08:57;8.10;;;5.50;;
12218;SDS011;6172;42.646;23.344;2023-07-22T04:11:25;9.35;;;5.47;;
12218;SDS011;6172;42.646;23.344;2023-07-22T04:13:54;8.52;;;5.05;;
12218;SDS011;6172;42.646;23.344;2023-07-22T04:16:21;6.95;;;5.53;;
12218;SDS011;6172;42.646;23.344;2023-07-22T04:18:48;10.18;;;5.47;;
12218;SDS011;6172;42.646;23.344;2023-07-22T04:21:15;8.35;;;5.35;;
12218;SDS011;6172;42.646;23.344;2023-07-22T04:23:42;10.45;;;4.65;;
12218;SDS011;6172;42.646;23.344;2023-07-22T04:26:10;15.30;;;5.95;;
12218;SDS011;6172;42.646;23.344;2023-07-22T04:28:36;6.72;;;5.32;;
12218;SDS011;6172;42.646;23.344;2023-07-22T04:31:05;9.35;;;5.20;;
12218;SDS011;6172;42.646;23.344;2023-07-22T04:33:35;10.82;;;5.78;;
12218;SDS011;6172;42.646;23.344;2023-07-22T04:36:03;8.00;;;5.68;;
12218;SDS011;6172;42.646;23.344;2023-07-22T04:38:30;8.27;;;5.30;;
12218;SDS011;6172;42.646;23.344;2023-07-22T04:40:57;9.43;;;5.38;;
12218;SDS011;6172;42.646;23.344;2023-07-22T04:43:24;7.00;;;5.60;;
12218;SDS011;6172;42.646;23.344;2023-07-22T04:45:51;9.30;;;5.85;;
12218;SDS011;6172;42.646;23.344;2023-07-22T04:48:21;8.52;;;4.93;;
12218;SDS011;6172;42.646;23.344;2023-07-22T04:50:49;11.88;;;5.32;;
12218;SDS011;6172;42.646;23.344;2023-07-22T04:53:18;8.27;;;5.35;;
12218;SDS011;6172;42.646;23.344;2023-07-22T04:55:45;12.02;;;5.00;;
12218;SDS011;6172;42.646;23.344;2023-07-22T04:58:12;7.90;;;5.40;;
12218;SDS011;6172;42.646;23.344;2023-07-22T05:00:39;10.82;;;6.15;;
12218;SDS011;6172;42.646;23.344;2023-07-22T05:03:07;8.27;;;5.50;;
12218;SDS011;6172;42.646;23.344;2023-07-22T05:05:35;10.70;;;5.68;;
12218;SDS011;6172;42.646;23.344;2023-07-22T05:08:03;7.25;;;5.18;;
12218;SDS011;6172;42.646;23.344;2023-07-22T05:10:32;7.90;;;5.32;;
12218;SDS011;6172;42.646;23.344;2023-07-22T05:12:59;9.63;;;5.35;;
12218;SDS011;6172;42.646;23.344;2023-07-22T05:15:26;7.35;;;4.88;;
12218;SDS011;6172;42.646;23.344;2023-07-22T05:17:53;8.25;;;5.50;;
12218;SDS011;6172;42.646;23.344;2023-07-22T05:20:20;6.40;;;5.30;;
12218;SDS011;6172;42.646;23.344;2023-07-22T05:22:48;9.25;;;5.50;;
12218;SDS011;6172;42.646;23.344;2023-07-22T05:25:15;8.23;;;6.28;;
12218;SDS011;6172;42.646;23.344;2023-07-22T05:27:43;11.02;;;6.65;;
12218;SDS011;6172;42.646;23.344;2023-07-22T05:30:10;8.63;;;5.80;;
12218;SDS011;6172;42.646;23.344;2023-07-22T05:32:38;8.18;;;5.60;;
12218;SDS011;6172;42.646;23.344;2023-07-22T05:35:05;9.70;;;5.93;;
12218;SDS011;6172;42.646;23.344;2023-07-22T05:37:35;10.25;;;5.75;;
12218;SDS011;6172;42.646;23.344;2023-07-22T05:40:03;10.82;;;5.93;;
12218;SDS011;6172;42.646;23.344;2023-07-22T05:42:32;6.78;;;5.45;;
12218;SDS011;6172;42.646;23.344;2023-07-22T05:44:59;9.23;;;5.47;;
12218;SDS011;6172;42.646;23.344;2023-07-22T05:47:27;10.05;;;5.72;;
12218;SDS011;6172;42.646;23.344;2023-07-22T05:49:54;11.50;;;6.03;;
12218;SDS011;6172;42.646;23.344;2023-07-22T05:52:21;10.38;;;5.72;;
12218;SDS011;6172;42.646;23.344;2023-07-22T05:54:48;9.48;;;5.85;;
12218;SDS011;6172;42.646;23.344;2023-07-22T05:57:17;7.97;;;6.13;;
12218;SDS011;6172;42.646;23.344;2023-07-22T05:59:44;16.65;;;6.18;;
12218;SDS011;6172;42.646;23.344;2023-07-22T06:02:12;10.77;;;6.45;;
12218;SDS011;6172;42.646;23.344;2023-07-22T06:04:39;5.78;;;5.07;;
12218;SDS011;6172;42.646;23.344;2023-07-22T06:07:06;10.48;;;5.88;;
12218;SDS011;6172;42.646;23.344;2023-07-22T06:09:33;10.60;;;5.75;;
12218;SDS011;6172;42.646;23.344;2023-07-22T06:12:00;9.52;;;5.22;;
12218;SDS011;6172;42.646;23.344;2023-07-22T06:14:29;13.05;;;5.75;;
12218;SDS011;6172;42.646;23.344;2023-07-22T06:16:56;6.43;;;5.70;;
12218;SDS011;6172;42.646;23.344;2023-07-22T06:19:23;14.10;;;6.05;;
12218;SDS011;6172;42.646;23.344;2023-07-22T06:21:50;9.90;;;6.00;;
12218;SDS011;6172;42.646;23.344;2023-07-22T06:24:17;7.43;;;5.78;;
12218;SDS011;6172;42.646;23.344;2023-07-22T06:26:44;15.05;;;6.10;;
12218;SDS011;6172;42.646;23.344;2023-07-22T06:29:11;10.52;;;6.03;;
12218;SDS011;6172;42.646;23.344;2023-07-22T06:31:42;10.57;;;6.30;;
12218;SDS011;6172;42.646;23.344;2023-07-22T06:34:09;7.20;;;6.15;;
12218;SDS011;6172;42.646;23.344;2023-07-22T06:36:36;8.60;;;6.35;;
12218;SDS011;6172;42.646;23.344;2023-07-22T06:39:03;7.95;;;6.50;;
12218;SDS011;6172;42.646;23.344;2023-07-22T06:41:30;8.25;;;6.60;;
12218;SDS011;6172;42.646;23.344;2023-07-22T06:43:57;12.23;;;6.82;;
12218;SDS011;6172;42.646;23.344;2023-07-22T06:46:24;19.13;;;7.60;;
12218;SDS011;6172;42.646;23.344;2023-07-22T06:48:52;11.10;;;7.43;;
12218;SDS011;6172;42.646;23.344;2023-07-22T06:51:19;16.60;;;7.20;;
12218;SDS011;6172;42.646;23.344;2023-07-22T06:53:46;10.88;;;7.28;;
12218;SDS011;6172;42.646;23.344;2023-07-22T06:56:13;10.50;;;6.70;;
12218;SDS011;6172;42.646;23.344;2023-07-22T06:58:40;11.77;;;6.82;;
12218;SDS011;6172;42.646;23.344;2023-07-22T07:01:07;9.63;;;7.78;;
12218;SDS011;6172;42.646;23.344;2023-07-22T07:03:36;9.05;;;6.55;;
12218;SDS011;6172;42.646;23.344;2023-07-22T07:06:05;11.73;;;6.57;;
12218;SDS011;6172;42.646;23.344;2023-07-22T07:08:32;9.68;;;7.05;;
12218;SDS011;6172;42.646;23.344;2023-07-22T07:11:00;10.77;;;7.38;;
12218;SDS011;6172;42.646;23.344;2023-07-22T07:13:27;9.57;;;6.20;;
12218;SDS011;6172;42.646;23.344;2023-07-22T07:15:54;10.38;;;7.50;;
12218;SDS011;6172;42.646;23.344;2023-07-22T07:18:21;15.45;;;7.40;;
12218;SDS011;6172;42.646;23.344;2023-07-22T07:20:50;9.05;;;6.72;;
12218;SDS011;6172;42.646;23.344;2023-07-22T07:23:19;7.65;;;6.95;;
12218;SDS011;6172;42.646;23.344;2023-07-22T07:25:46;8.38;;;6.95;;
12218;SDS011;6172;42.646;23.344;2023-07-22T07:28:13;9.40;;;6.35;;
12218;SDS011;6172;42.646;23.344;2023-07-22T07:30:43;8.13;;;6.88;;
12218;SDS011;6172;42.646;23.344;2023-07-22T07:33:10;11.70;;;8.13;;
12218;SDS011;6172;42.646;23.344;2023-07-22T07:35:40;10.48;;;6.63;;
12218;SDS011;6172;42.646;23.344;2023-07-22T07:38:11;9.20;;;6.88;;
12218;SDS011;6172;42.646;23.344;2023-07-22T07:40:41;11.57;;;6.75;;
12218;SDS011;6172;42.646;23.344;2023-07-22T07:43:10;9.13;;;6.53;;
12218;SDS011;6172;42.646;23.344;2023-07-22T07:45:38;8.13;;;6.35;;
12218;SDS011;6172;42.646;23.344;2023-07-22T07:48:06;9.07;;;7.43;;
12218;SDS011;6172;42.646;23.344;2023-07-22T07:50:33;10.80;;;6.80;;
12218;SDS011;6172;42.646;23.344;2023-07-22T07:53:00;11.65;;;7.20;;
12218;SDS011;6172;42.646;23.344;2023-07-22T07:55:28;12.27;;;6.80;;
12218;SDS011;6172;42.646;23.344;2023-07-22T07:57:57;10.75;;;7.00;;
12218;SDS011;6172;42.646;23.344;2023-07-22T08:00:24;11.73;;;7.82;;
12218;SDS011;6172;42.646;23.344;2023-07-22T08:02:51;9.60;;;8.07;;
12218;SDS011;6172;42.646;23.344;2023-07-22T08:05:18;10.82;;;7.35;;
12218;SDS011;6172;42.646;23.344;2023-07-22T08:07:45;12.20;;;7.47;;
12218;SDS011;6172;42.646;23.344;2023-07-22T08:10:12;9.23;;;6.75;;
12218;SDS011;6172;42.646;23.344;2023-07-22T08:12:39;15.00;;;7.85;;
12218;SDS011;6172;42.646;23.344;2023-07-22T08:15:08;13.15;;;8.13;;
12218;SDS011;6172;42.646;23.344;2023-07-22T08:17:35;10.45;;;7.18;;
12218;SDS011;6172;42.646;23.344;2023-07-22T08:20:04;11.05;;;7.68;;
12218;SDS011;6172;42.646;23.344;2023-07-22T08:22:35;9.77;;;7.32;;
12218;SDS011;6172;42.646;23.344;2023-07-22T08:25:02;11.73;;;7.95;;
12218;SDS011;6172;42.646;23.344;2023-07-22T08:27:34;8.02;;;6.75;;
12218;SDS011;6172;42.646;23.344;2023-07-22T08:30:00;10.27;;;7.13;;
12218;SDS011;6172;42.646;23.344;2023-07-22T08:32:32;10.10;;;6.97;;
12218;SDS011;6172;42.646;23.344;2023-07-22T08:34:59;10.52;;;7.60;;
12218;SDS011;6172;42.646;23.344;2023-07-22T08:37:27;10.18;;;7.00;;
12218;SDS011;6172;42.646;23.344;2023-07-22T08:39:54;11.55;;;7.53;;
12218;SDS011;6172;42.646;23.344;2023-07-22T08:42:21;11.75;;;7.13;;
12218;SDS011;6172;42.646;23.344;2023-07-22T08:44:50;13.88;;;7.82;;
12218;SDS011;6172;42.646;23.344;2023-07-22T08:47:22;11.13;;;7.32;;
12218;SDS011;6172;42.646;23.344;2023-07-22T08:49:53;8.00;;;6.97;;
12218;SDS011;6172;42.646;23.344;2023-07-22T08:52:24;12.13;;;8.05;;
12218;SDS011;6172;42.646;23.344;2023-07-22T08:54:51;9.27;;;6.85;;
12218;SDS011;6172;42.646;23.344;2023-07-22T08:57:19;11.32;;;7.25;;
12218;SDS011;6172;42.646;23.344;2023-07-22T08:59:47;8.38;;;6.97;;
12218;SDS011;6172;42.646;23.344;2023-07-22T09:02:15;12.77;;;8.10;;
12218;SDS011;6172;42.646;23.344;2023-07-22T09:04:43;10.43;;;7.95;;
12218;SDS011;6172;42.646;23.344;2023-07-22T09:07:13;12.60;;;8.50;;
12218;SDS011;6172;42.646;23.344;2023-07-22T09:09:42;13.82;;;8.40;;
12218;SDS011;6172;42.646;23.344;2023-07-22T09:12:11;15.95;;;8.20;;
12218;SDS011;6172;42.646;23.344;2023-07-22T09:14:41;11.93;;;7.35;;
12218;SDS011;6172;42.646;23.344;2023-07-22T09:17:10;11.30;;;7.70;;
12218;SDS011;6172;42.646;23.344;2023-07-22T09:19:37;9.65;;;7.80;;
12218;SDS011;6172;42.646;23.344;2023-07-22T09:22:04;13.20;;;7.78;;
12218;SDS011;6172;42.646;23.344;2023-07-22T09:24:33;12.43;;;7.90;;
12218;SDS011;6172;42.646;23.344;2023-07-22T09:27:00;12.80;;;7.20;;
12218;SDS011;6172;42.646;23.344;2023-07-22T09:29:33;13.93;;;7.53;;
12218;SDS011;6172;42.646;23.344;2023-07-22T09:32:00;10.50;;;7.25;;
12218;SDS011;6172;42.646;23.344;2023-07-22T09:34:28;13.77;;;7.55;;
12218;SDS011;6172;42.646;23.344;2023-07-22T09:36:56;12.52;;;7.93;;
12218;SDS011;6172;42.646;23.344;2023-07-22T09:39:25;12.52;;;7.43;;
12218;SDS011;6172;42.646;23.344;2023-07-22T09:41:56;9.55;;;6.97;;
12218;SDS011;6172;42.646;23.344;2023-07-22T09:44:24;10.18;;;7.03;;
12218;SDS011;6172;42.646;23.344;2023-07-22T09:46:55;10.95;;;7.47;;
12218;SDS011;6172;42.646;23.344;2023-07-22T09:49:22;11.93;;;7.00;;
12218;SDS011;6172;42.646;23.344;2023-07-22T09:51:50;11.65;;;7.45;;
12218;SDS011;6172;42.646;23.344;2023-07-22T09:54:17;9.52;;;6.88;;
12218;SDS011;6172;42.646;23.344;2023-07-22T09:56:47;11.88;;;7.00;;
12218;SDS011;6172;42.646;23.344;2023-07-22T09:59:17;12.50;;;7.55;;
12218;SDS011;6172;42.646;23.344;2023-07-22T10:01:46;12.57;;;7.40;;
12218;SDS011;6172;42.646;23.344;2023-07-22T10:04:15;16.33;;;6.97;;
12218;SDS011;6172;42.646;23.344;2023-07-22T10:06:45;14.13;;;6.90;;
12218;SDS011;6172;42.646;23.344;2023-07-22T10:09:12;12.23;;;6.75;;
12218;SDS011;6172;42.646;23.344;2023-07-22T10:11:41;11.30;;;7.18;;
12218;SDS011;6172;42.646;23.344;2023-07-22T10:14:08;12.63;;;6.80;;
12218;SDS011;6172;42.646;23.344;2023-07-22T10:16:39;11.65;;;6.60;;
12218;SDS011;6172;42.646;23.344;2023-07-22T10:19:07;14.60;;;7.03;;
12218;SDS011;6172;42.646;23.344;2023-07-22T10:21:36;16.23;;;7.65;;
12218;SDS011;6172;42.646;23.344;2023-07-22T10:24:04;17.40;;;6.45;;
12218;SDS011;6172;42.646;23.344;2023-07-22T10:26:33;12.52;;;6.72;;
12218;SDS011;6172;42.646;23.344;2023-07-22T10:29:00;12.52;;;6.50;;
12218;SDS011;6172;42.646;23.344;2023-07-22T10:31:29;15.98;;;7.45;;
12218;SDS011;6172;42.646;23.344;2023-07-22T10:34:00;16.05;;;6.80;;
12218;SDS011;6172;42.646;23.344;2023-07-22T10:36:29;12.07;;;6.18;;
12218;SDS011;6172;42.646;23.344;2023-07-22T10:38:57;17.13;;;6.63;;
12218;SDS011;6172;42.646;23.344;2023-07-22T10:41:25;15.35;;;6.15;;
12218;SDS011;6172;42.646;23.344;2023-07-22T10:43:55;16.33;;;6.50;;
12218;SDS011;6172;42.646;23.344;2023-07-22T10:46:31;25.80;;;6.88;;
12218;SDS011;6172;42.646;23.344;2023-07-22T10:49:11;22.38;;;7.28;;
12218;SDS011;6172;42.646;23.344;2023-07-22T10:51:39;19.63;;;6.38;;
12218;SDS011;6172;42.646;23.344;2023-07-22T10:54:12;19.98;;;6.22;;
12218;SDS011;6172;42.646;23.344;2023-07-22T10:56:40;20.67;;;5.32;;
12218;SDS011;6172;42.646;23.344;2023-07-22T10:59:09;14.20;;;4.95;;
12218;SDS011;6172;42.646;23.344;2023-07-22T11:01:37;15.73;;;5.57;;
12218;SDS011;6172;42.646;23.344;2023-07-22T11:04:22;16.92;;;5.05;;
12218;SDS011;6172;42.646;23.344;2023-07-22T11:07:02;24.10;;;4.95;;
12218;SDS011;6172;42.646;23.344;2023-07-22T11:09:34;20.42;;;5.75;;
12218;SDS011;6172;42.646;23.344;2023-07-22T11:12:03;15.60;;;5.10;;
12218;SDS011;6172;42.646;23.344;2023-07-22T11:14:31;15.15;;;4.93;;
12218;SDS011;6172;42.646;23.344;2023-07-22T11:17:00;15.30;;;5.03;;
12218;SDS011;6172;42.646;23.344;2023-07-22T11:19:31;20.88;;;5.05;;
12218;SDS011;6172;42.646;23.344;2023-07-22T11:21:59;25.13;;;5.53;;
12218;SDS011;6172;42.646;23.344;2023-07-22T11:24:29;19.35;;;5.18;;
12218;SDS011;6172;42.646;23.344;2023-07-22T11:26:56;13.23;;;4.90;;
12218;SDS011;6172;42.646;23.344;2023-07-22T11:29:24;18.00;;;4.90;;
12218;SDS011;6172;42.646;23.344;2023-07-22T11:31:51;19.27;;;5.60;;
12218;SDS011;6172;42.646;23.344;2023-07-22T11:34:18;16.60;;;5.80;;
12218;SDS011;6172;42.646;23.344;2023-07-22T11:36:49;25.95;;;5.93;;
12218;SDS011;6172;42.646;23.344;2023-07-22T11:39:17;15.10;;;4.57;;
12218;SDS011;6172;42.646;23.344;2023-07-22T11:41:45;20.00;;;5.70;;
12218;SDS011;6172;42.646;23.344;2023-07-22T11:44:13;15.05;;;4.50;;
12218;SDS011;6172;42.646;23.344;2023-07-22T11:46:52;14.85;;;4.68;;
12218;SDS011;6172;42.646;23.344;2023-07-22T11:49:27;18.92;;;4.85;;
12218;SDS011;6172;42.646;23.344;2023-07-22T11:51:57;15.57;;;5.82;;
12218;SDS011;6172;42.646;23.344;2023-07-22T11:54:25;16.23;;;5.00;;
12218;SDS011;6172;42.646;23.344;2023-07-22T11:56:52;16.58;;;4.88;;
12218;SDS011;6172;42.646;23.344;2023-07-22T11:59:33;19.88;;;5.50;;
12218;SDS011;6172;42.646;23.344;2023-07-22T12:02:01;14.02;;;5.38;;
12218;SDS011;6172;42.646;23.344;2023-07-22T12:04:30;26.77;;;5.32;;
12218;SDS011;6172;42.646;23.344;2023-07-22T12:06:58;17.30;;;4.72;;
12218;SDS011;6172;42.646;23.344;2023-07-22T12:09:26;16.90;;;4.28;;
12218;SDS011;6172;42.646;23.344;2023-07-22T12:11:56;16.52;;;4.70;;
12218;SDS011;6172;42.646;23.344;2023-07-22T12:14:24;15.32;;;4.90;;
12218;SDS011;6172;42.646;23.344;2023-07-22T12:16:58;15.45;;;4.45;;
12218;SDS011;6172;42.646;23.344;2023-07-22T12:19:25;11.27;;;4.25;;
12218;SDS011;6172;42.646;23.344;2023-07-22T12:21:54;16.38;;;5.07;;
12218;SDS011;6172;42.646;23.344;2023-07-22T12:24:22;13.68;;;4.90;;
12218;SDS011;6172;42.646;23.344;2023-07-22T12:26:49;15.15;;;4.68;;
12218;SDS011;6172;42.646;23.344;2023-07-22T12:29:16;23.95;;;4.78;;
12218;SDS011;6172;42.646;23.344;2023-07-22T12:31:43;18.05;;;5.32;;
12218;SDS011;6172;42.646;23.344;2023-07-22T12:34:10;21.73;;;4.57;;
12218;SDS011;6172;42.646;23.344;2023-07-22T12:36:36;19.38;;;5.57;;
12218;SDS011;6172;42.646;23.344;2023-07-22T12:39:03;18.55;;;4.40;;
12218;SDS011;6172;42.646;23.344;2023-07-22T12:41:32;15.30;;;4.60;;
12218;SDS011;6172;42.646;23.344;2023-07-22T12:43:59;14.95;;;4.65;;
12218;SDS011;6172;42.646;23.344;2023-07-22T12:46:26;17.40;;;5.00;;
12218;SDS011;6172;42.646;23.344;2023-07-22T12:48:53;15.82;;;4.85;;
12218;SDS011;6172;42.646;23.344;2023-07-22T12:51:19;16.85;;;5.05;;
12218;SDS011;6172;42.646;23.344;2023-07-22T12:53:46;16.55;;;4.38;;
12218;SDS011;6172;42.646;23.344;2023-07-22T12:56:13;15.55;;;5.22;;
12218;SDS011;6172;42.646;23.344;2023-07-22T12:58:42;16.25;;;4.88;;
12218;SDS011;6172;42.646;23.344;2023-07-22T13:01:09;32.35;;;5.65;;
12218;SDS011;6172;42.646;23.344;2023-07-22T13:03:35;20.20;;;4.68;;
12218;SDS011;6172;42.646;23.344;2023-07-22T13:06:02;21.63;;;5.15;;
12218;SDS011;6172;42.646;23.344;2023-07-22T13:08:29;17.50;;;5.20;;
12218;SDS011;6172;42.646;23.344;2023-07-22T13:10:56;19.02;;;4.95;;
12218;SDS011;6172;42.646;23.344;2023-07-22T13:13:23;17.95;;;4.93;;
12218;SDS011;6172;42.646;23.344;2023-07-22T13:15:52;21.77;;;5.15;;
12218;SDS011;6172;42.646;23.344;2023-07-22T13:18:19;17.83;;;4.75;;
12218;SDS011;6172;42.646;23.344;2023-07-22T13:20:46;17.50;;;4.88;;
12218;SDS011;6172;42.646;23.344;2023-07-22T13:23:13;17.08;;;5.47;;
12218;SDS011;6172;42.646;23.344;2023-07-22T13:25:38;21.80;;;5.20;;
12218;SDS011;6172;42.646;23.344;2023-07-22T13:28:05;22.10;;;7.07;;
12218;SDS011;6172;42.646;23.344;2023-07-22T13:30:32;16.58;;;4.65;;
12218;SDS011;6172;42.646;23.344;2023-07-22T13:33:01;15.70;;;4.40;;
12218;SDS011;6172;42.646;23.344;2023-07-22T13:35:28;20.23;;;4.97;;
12218;SDS011;6172;42.646;23.344;2023-07-22T13:37:55;14.70;;;4.88;;
12218;SDS011;6172;42.646;23.344;2023-07-22T13:40:22;12.45;;;4.88;;
12218;SDS011;6172;42.646;23.344;2023-07-22T13:42:49;15.80;;;4.72;;
12218;SDS011;6172;42.646;23.344;2023-07-22T13:45:15;20.13;;;5.05;;
12218;SDS011;6172;42.646;23.344;2023-07-22T13:47:42;19.63;;;5.43;;
12218;SDS011;6172;42.646;23.344;2023-07-22T13:50:11;19.08;;;4.97;;
12218;SDS011;6172;42.646;23.344;2023-07-22T13:52:38;15.75;;;4.07;;
12218;SDS011;6172;42.646;23.344;2023-07-22T13:55:06;14.95;;;4.43;;
12218;SDS011;6172;42.646;23.344;2023-07-22T13:57:34;19.40;;;5.35;;
12218;SDS011;6172;42.646;23.344;2023-07-22T14:00:01;21.85;;;5.13;;
12218;SDS011;6172;42.646;23.344;2023-07-22T14:02:33;24.45;;;5.22;;
12218;SDS011;6172;42.646;23.344;2023-07-22T14:05:00;22.17;;;5.43;;
12218;SDS011;6172;42.646;23.344;2023-07-22T14:07:29;20.80;;;4.80;;
12218;SDS011;6172;42.646;23.344;2023-07-22T14:09:56;17.88;;;4.78;;
12218;SDS011;6172;42.646;23.344;2023-07-22T14:12:23;11.88;;;5.00;;
12218;SDS011;6172;42.646;23.344;2023-07-22T14:14:50;20.92;;;4.75;;
12218;SDS011;6172;42.646;23.344;2023-07-22T14:17:17;16.20;;;3.75;;
12218;SDS011;6172;42.646;23.344;2023-07-22T14:19:44;14.80;;;4.60;;
12218;SDS011;6172;42.646;23.344;2023-07-22T14:22:11;16.23;;;4.28;;
12218;SDS011;6172;42.646;23.344;2023-07-22T14:24:40;17.63;;;4.93;;
12218;SDS011;6172;42.646;23.344;2023-07-22T14:27:07;18.38;;;3.90;;
12218;SDS011;6172;42.646;23.344;2023-07-22T14:29:34;22.77;;;4.15;;
12218;SDS011;6172;42.646;23.344;2023-07-22T14:32:01;12.35;;;4.57;;
12218;SDS011;6172;42.646;23.344;2023-07-22T14:34:28;21.73;;;5.30;;
12218;SDS011;6172;42.646;23.344;2023-07-22T14:36:55;16.85;;;4.90;;
12218;SDS011;6172;42.646;23.344;2023-07-22T14:39:21;18.23;;;4.80;;
12218;SDS011;6172;42.646;23.344;2023-07-22T14:41:50;15.73;;;4.50;;
12218;SDS011;6172;42.646;23.344;2023-07-22T14:44:18;21.13;;;5.03;;